Asheboro, North Carolina
Current Conditions -  °F | °C
As of 8:35 PM on Thursday 27 Nov 2014 (Local Time) from KHBI Reporting Station
Clear Clear  
Wind Chill: 37°   Ceiling: Unl
Heat Index: 37°   Visibility: 10mi
Dew Point: 26°   Wind: 0mph
Humidity: 63%   Direction: NA
Pressure: 30.26"   Gusts: NA
Location:  35.71°N, 79.81°W
Report Text: KHBI 280135Z AUTO 00000KT 10SM CLR 03/M03 A3026 RMK AO2 T00301035
Loading
Personal Weather Stations






























Interactive Weather Map New forecast layout! Learn more

10-Day Weather Forecast

Advertisements
Track Severe Weather on mobile